createdAt,value
2023-03-30T00:02:10.115Z,39.98
2023-03-30T00:04:42.466Z,40.08
2023-03-30T00:07:11.071Z,40.32
2023-03-30T00:09:41.899Z,40.18
2023-03-30T00:12:09.912Z,40.27
2023-03-30T00:14:37.975Z,40.43
2023-03-30T00:17:06.416Z,40.65
2023-03-30T00:19:37.077Z,40.72
2023-03-30T00:22:06.013Z,40.78
2023-03-30T00:24:34.085Z,40.88
2023-03-30T00:27:02.739Z,40.86
2023-03-30T00:29:30.858Z,40.91
2023-03-30T00:32:00.691Z,40.75
2023-03-30T00:34:28.994Z,40.80
2023-03-30T00:36:57.577Z,41.08
2023-03-30T00:39:26.122Z,41.12
2023-03-30T00:41:54.221Z,41.30
2023-03-30T00:44:58.776Z,41.27
2023-03-30T00:47:28.415Z,41.36
2023-03-30T00:49:58.052Z,41.57
2023-03-30T00:52:27.902Z,41.46
2023-03-30T00:54:57.641Z,41.63
2023-03-30T00:57:28.034Z,41.66
2023-03-30T00:59:56.975Z,41.59
2023-03-30T01:02:25.351Z,41.94
2023-03-30T01:04:57.034Z,41.89
2023-03-30T01:07:26.179Z,42.13
2023-03-30T01:09:55.421Z,42.17
2023-03-30T01:12:23.615Z,42.09
2023-03-30T01:14:53.035Z,42.19
2023-03-30T01:17:29.092Z,42.24
2023-03-30T01:20:33.339Z,42.46
2023-03-30T01:23:30.445Z,42.38
2023-03-30T01:26:48.314Z,42.47
2023-03-30T01:29:36.020Z,42.43
2023-03-30T01:32:44.586Z,42.82
2023-03-30T01:35:43.442Z,42.75
2023-03-30T01:38:52.592Z,43.12
2023-03-30T01:41:31.096Z,42.98
2023-03-30T01:44:05.861Z,43.05
2023-03-30T01:46:40.176Z,43.21
2023-03-30T01:49:12.986Z,43.07
2023-03-30T01:51:47.648Z,43.27
2023-03-30T01:54:20.562Z,43.26
2023-03-30T01:56:51.616Z,43.28
2023-03-30T01:59:25.824Z,43.24
2023-03-30T02:02:02.021Z,43.63
2023-03-30T02:04:35.920Z,43.63
2023-03-30T02:07:09.584Z,43.71
2023-03-30T02:09:40.409Z,43.59
2023-03-30T02:12:10.626Z,43.66
2023-03-30T02:14:41.563Z,43.89
2023-03-30T02:17:15.547Z,44.08
2023-03-30T02:19:45.920Z,44.19
2023-03-30T02:22:15.713Z,43.98
2023-03-30T02:24:45.630Z,43.87
2023-03-30T02:27:14.096Z,44.03
2023-03-30T02:29:44.521Z,44.23
2023-03-30T02:32:19.039Z,44.22
2023-03-30T02:35:04.505Z,44.45
2023-03-30T02:38:00.986Z,44.35
2023-03-30T02:40:44.366Z,44.63
2023-03-30T02:43:26.146Z,44.58
2023-03-30T02:46:09.354Z,44.55
2023-03-30T02:48:44.898Z,44.46
2023-03-30T02:51:28.888Z,44.71
2023-03-30T02:54:26.616Z,44.71
2023-03-30T02:57:18.736Z,44.68
2023-03-30T02:59:56.567Z,44.90
2023-03-30T03:02:29.811Z,44.82
2023-03-30T03:05:07.278Z,44.87
2023-03-30T03:07:49.320Z,45.17
2023-03-30T03:10:17.709Z,45.14
2023-03-30T03:12:46.542Z,45.01
2023-03-30T03:15:16.152Z,45.27
2023-03-30T03:17:58.293Z,45.12
2023-03-30T03:20:29.906Z,45.22
2023-03-30T03:22:58.210Z,45.12
2023-03-30T03:25:26.424Z,45.19
2023-03-30T03:28:04.948Z,45.52
2023-03-30T03:30:46.483Z,45.53
2023-03-30T03:33:19.959Z,45.48
2023-03-30T03:35:59.475Z,45.78
2023-03-30T03:38:28.309Z,45.81
2023-03-30T03:40:58.738Z,45.76
2023-03-30T03:43:27.183Z,45.70
2023-03-30T03:45:55.866Z,45.85
2023-03-30T03:48:24.713Z,46.13
2023-03-30T03:50:55.376Z,46.11
2023-03-30T03:53:25.342Z,46.09
2023-03-30T03:55:55.834Z,46.04
2023-03-30T03:58:25.020Z,46.29
2023-03-30T04:00:58.886Z,46.26
2023-03-30T04:03:26.940Z,46.31
2023-03-30T04:05:57.566Z,46.45
2023-03-30T04:08:30.293Z,46.50
2023-03-30T04:11:08.184Z,46.42
2023-03-30T04:13:55.390Z,46.47
2023-03-30T04:16:38.699Z,46.60
2023-03-30T04:19:27.159Z,46.52
2023-03-30T04:22:05.845Z,46.73
2023-03-30T04:25:14.517Z,46.94
2023-03-30T04:28:12.210Z,47.06
2023-03-30T04:31:10.441Z,47.04
2023-03-30T04:33:57.335Z,47.09
2023-03-30T04:36:43.018Z,47.00
2023-03-30T04:39:38.092Z,47.20
2023-03-30T04:42:29.568Z,47.09
2023-03-30T04:45:25.651Z,47.28
2023-03-30T04:48:25.119Z,47.33
2023-03-30T04:51:13.623Z,47.48
2023-03-30T04:54:01.822Z,47.38
2023-03-30T04:57:05.226Z,47.46
2023-03-30T05:00:07.368Z,47.38
2023-03-30T05:03:01.730Z,47.38
2023-03-30T05:05:57.083Z,47.46
2023-03-30T05:08:51.024Z,47.54
2023-03-30T05:11:22.778Z,47.31
2023-03-30T05:14:00.442Z,47.81
2023-03-30T05:16:56.539Z,47.81
2023-03-30T05:19:43.208Z,47.80
2023-03-30T05:22:34.785Z,47.80
2023-03-30T05:25:21.482Z,47.72
2023-03-30T05:27:57.603Z,47.85
2023-03-30T05:30:39.966Z,47.72
2023-03-30T05:33:26.857Z,47.65
2023-03-30T05:36:17.902Z,47.81
2023-03-30T05:39:10.892Z,47.82
2023-03-30T05:42:02.260Z,48.07
2023-03-30T05:44:39.771Z,47.89
2023-03-30T05:47:39.699Z,48.15
2023-03-30T05:50:43.639Z,48.05
2023-03-30T05:53:20.937Z,48.14
2023-03-30T05:56:02.812Z,48.25
2023-03-30T05:58:51.043Z,48.12
2023-03-30T06:01:37.835Z,48.39
2023-03-30T06:04:09.390Z,48.35
2023-03-30T06:06:37.986Z,48.38
2023-03-30T06:09:10.669Z,48.48
2023-03-30T06:11:38.997Z,48.41
2023-03-30T06:14:21.569Z,48.49
2023-03-30T06:17:15.328Z,48.67
2023-03-30T06:19:45.600Z,48.78
2023-03-30T06:22:14.387Z,48.47
2023-03-30T06:24:54.189Z,48.79
2023-03-30T06:27:22.456Z,48.73
2023-03-30T06:29:52.310Z,48.71
2023-03-30T06:32:20.795Z,48.83
2023-03-30T06:35:10.787Z,48.84
2023-03-30T06:37:39.856Z,48.81
2023-03-30T06:40:12.929Z,48.77
2023-03-30T06:42:43.487Z,48.61
2023-03-30T06:45:21.297Z,48.47
2023-03-30T06:48:13.950Z,48.45
2023-03-30T06:50:53.893Z,48.30
2023-03-30T06:53:41.298Z,48.40
2023-03-30T06:56:22.360Z,48.43
2023-03-30T06:59:07.680Z,48.50
2023-03-30T07:01:45.662Z,48.42
2023-03-30T07:04:49.655Z,48.23
2023-03-30T07:07:25.053Z,48.05
2023-03-30T07:09:53.158Z,47.96
2023-03-30T07:12:21.646Z,48.04
2023-03-30T07:14:50.166Z,48.00
2023-03-30T07:17:18.706Z,47.99
2023-03-30T07:19:46.870Z,48.15
2023-03-30T07:22:15.088Z,48.05
2023-03-30T07:24:44.340Z,48.00
2023-03-30T07:27:12.534Z,48.20
2023-03-30T07:29:41.846Z,48.42
2023-03-30T07:32:10.143Z,48.26
2023-03-30T07:34:38.286Z,48.14
2023-03-30T07:37:07.654Z,48.24
2023-03-30T07:39:36.520Z,48.13
2023-03-30T07:42:06.701Z,48.14
2023-03-30T07:44:37.180Z,48.30
2023-03-30T07:47:07.745Z,48.41
2023-03-30T07:49:38.057Z,48.39
2023-03-30T07:52:06.709Z,48.43
2023-03-30T07:54:43.740Z,48.05
2023-03-30T07:57:19.039Z,48.21
2023-03-30T07:59:47.197Z,48.43
2023-03-30T08:02:23.870Z,48.36
2023-03-30T08:04:54.480Z,48.28
2023-03-30T08:07:36.126Z,48.28
2023-03-30T08:10:12.409Z,48.25
2023-03-30T08:12:41.622Z,48.01
2023-03-30T08:15:11.622Z,48.27
2023-03-30T08:17:39.632Z,48.20
2023-03-30T08:20:10.919Z,48.06
2023-03-30T08:22:41.997Z,48.10
2023-03-30T08:25:11.325Z,48.27
2023-03-30T08:27:39.926Z,48.35
2023-03-30T08:30:12.665Z,47.95
2023-03-30T08:32:41.148Z,47.79
2023-03-30T08:35:11.317Z,48.18
2023-03-30T08:37:39.460Z,48.00
2023-03-30T08:40:12.383Z,47.85
2023-03-30T08:43:03.612Z,47.76
2023-03-30T08:45:39.717Z,47.88
2023-03-30T08:48:17.488Z,48.06
2023-03-30T08:50:53.461Z,48.11
2023-03-30T08:53:21.681Z,48.07
2023-03-30T08:55:56.743Z,48.10
2023-03-30T08:58:32.350Z,48.34
2023-03-30T09:01:12.347Z,48.18
2023-03-30T09:03:50.095Z,48.60
2023-03-30T09:06:25.790Z,48.79
2023-03-30T09:08:54.049Z,48.56
2023-03-30T09:11:32.448Z,48.46
2023-03-30T09:14:04.722Z,48.41
2023-03-30T09:16:40.231Z,48.37
2023-03-30T09:19:14.479Z,48.11
2023-03-30T09:21:42.937Z,48.25
2023-03-30T09:24:15.502Z,48.45
2023-03-30T09:26:50.129Z,48.48
2023-03-30T09:29:22.560Z,48.61
2023-03-30T09:31:55.720Z,48.79
2023-03-30T09:34:27.552Z,48.78
2023-03-30T09:37:00.795Z,48.72
2023-03-30T09:39:32.316Z,48.96
2023-03-30T09:42:13.465Z,48.70
2023-03-30T09:44:47.108Z,48.81
2023-03-30T09:47:23.902Z,49.06
2023-03-30T09:49:57.554Z,48.81
2023-03-30T09:52:27.301Z,48.74
2023-03-30T09:54:56.614Z,48.90
2023-03-30T09:57:27.586Z,48.93
2023-03-30T10:00:26.853Z,48.87
2023-03-30T10:03:24.896Z,48.88
2023-03-30T10:06:04.165Z,48.85
2023-03-30T10:08:32.801Z,48.84
2023-03-30T10:11:05.681Z,48.84
2023-03-30T10:13:37.137Z,48.72
2023-03-30T10:16:08.871Z,48.73
2023-03-30T10:18:42.298Z,48.21
2023-03-30T10:21:19.039Z,47.81
2023-03-30T10:23:58.907Z,47.67
2023-03-30T10:26:29.964Z,47.21
2023-03-30T10:29:02.893Z,46.94
2023-03-30T10:31:33.349Z,46.95
2023-03-30T10:34:03.939Z,47.02
2023-03-30T10:36:34.835Z,47.02
2023-03-30T10:39:11.790Z,46.52
2023-03-30T10:41:41.381Z,46.41
2023-03-30T10:44:22.405Z,46.51
2023-03-30T10:46:53.488Z,46.56
2023-03-30T10:49:38.818Z,46.56
2023-03-30T10:52:14.183Z,46.05
2023-03-30T10:54:46.940Z,45.69
2023-03-30T10:57:17.882Z,45.57
2023-03-30T11:00:14.938Z,45.80
2023-03-30T11:02:54.409Z,45.50
2023-03-30T11:05:31.967Z,45.50
2023-03-30T11:08:04.027Z,45.46
2023-03-30T11:10:37.984Z,45.14
2023-03-30T11:13:08.178Z,45.02
2023-03-30T11:15:43.296Z,45.09
2023-03-30T11:18:17.574Z,45.13
2023-03-30T11:20:51.310Z,45.19
2023-03-30T11:23:55.730Z,45.22
2023-03-30T11:26:35.763Z,45.11
2023-03-30T11:29:12.866Z,45.21
2023-03-30T11:32:03.522Z,45.00
2023-03-30T11:34:55.551Z,44.84
2023-03-30T11:37:32.723Z,44.72
2023-03-30T11:40:13.425Z,44.74
2023-03-30T11:42:53.230Z,44.74
2023-03-30T11:46:22.996Z,44.90
2023-03-30T11:49:15.826Z,45.00
2023-03-30T11:52:05.128Z,44.87
2023-03-30T11:55:06.809Z,44.94
2023-03-30T11:57:40.452Z,44.89
2023-03-30T12:01:07.022Z,44.96
2023-03-30T12:03:42.181Z,44.99
2023-03-30T12:06:27.933Z,44.88
2023-03-30T12:09:22.737Z,44.86
2023-03-30T12:11:57.558Z,44.92
2023-03-30T12:14:40.775Z,44.65
2023-03-30T12:17:28.888Z,44.36
2023-03-30T12:20:05.714Z,44.24
2023-03-30T12:22:41.140Z,44.09
2023-03-30T12:25:28.495Z,44.04
2023-03-30T12:28:10.753Z,44.28
2023-03-30T12:30:45.478Z,44.37
2023-03-30T12:33:18.953Z,44.31
2023-03-30T12:36:01.638Z,43.98
2023-03-30T12:38:38.500Z,43.90
2023-03-30T12:41:17.834Z,44.13
2023-03-30T12:44:02.384Z,44.36
2023-03-30T12:46:42.236Z,44.24
2023-03-30T12:49:26.716Z,44.09
2023-03-30T12:52:10.040Z,44.13
2023-03-30T12:55:11.698Z,44.04
2023-03-30T12:58:06.968Z,44.09
2023-03-30T13:01:03.186Z,44.16
2023-03-30T13:03:38.718Z,44.35
2023-03-30T13:06:13.811Z,44.34
2023-03-30T13:08:42.565Z,44.47
2023-03-30T13:11:15.440Z,44.36
2023-03-30T13:14:25.681Z,44.50
2023-03-30T13:17:18.893Z,44.64
2023-03-30T13:20:10.426Z,44.74
2023-03-30T13:23:22.607Z,44.96
2023-03-30T13:26:02.576Z,45.11
2023-03-30T13:28:54.843Z,45.40
2023-03-30T13:31:35.085Z,45.43
2023-03-30T13:34:14.621Z,45.59
2023-03-30T13:36:52.853Z,45.73
2023-03-30T13:39:29.174Z,45.85
2023-03-30T13:42:13.782Z,45.83
2023-03-30T13:44:57.119Z,45.90
2023-03-30T13:47:53.195Z,45.96
2023-03-30T13:50:26.860Z,46.09
2023-03-30T13:52:58.778Z,46.20
2023-03-30T13:55:45.760Z,46.16
2023-03-30T13:58:18.097Z,46.31
2023-03-30T14:00:50.025Z,46.26
2023-03-30T14:03:40.877Z,46.45
2023-03-30T14:06:17.240Z,46.71
2023-03-30T14:08:47.969Z,46.92
2023-03-30T14:11:20.422Z,46.96
2023-03-30T14:13:52.171Z,46.96
2023-03-30T14:16:25.724Z,47.03
2023-03-30T14:19:07.637Z,47.00
2023-03-30T14:21:38.088Z,47.13
2023-03-30T14:24:09.931Z,47.13
2023-03-30T14:26:40.868Z,47.36
2023-03-30T14:29:24.646Z,47.52
2023-03-30T14:32:09.249Z,47.57
2023-03-30T14:34:39.487Z,47.72
2023-03-30T14:37:11.426Z,47.82
2023-03-30T14:39:43.095Z,47.82
2023-03-30T14:42:18.794Z,48.03
2023-03-30T14:44:49.237Z,48.12
2023-03-30T14:47:21.575Z,48.07
2023-03-30T14:49:51.547Z,48.16
2023-03-30T14:52:21.804Z,48.08
2023-03-30T14:55:05.295Z,48.23
2023-03-30T14:57:38.606Z,48.28
2023-03-30T15:00:20.256Z,48.38
2023-03-30T15:02:51.421Z,48.51
2023-03-30T15:05:20.955Z,48.60
2023-03-30T15:07:50.588Z,48.74
2023-03-30T15:10:24.634Z,48.76
2023-03-30T15:12:55.634Z,48.80
2023-03-30T15:15:27.951Z,48.86
2023-03-30T15:17:56.700Z,49.13
2023-03-30T15:20:27.883Z,49.26
2023-03-30T15:22:56.728Z,49.42
2023-03-30T15:25:31.223Z,49.50
2023-03-30T15:28:03.279Z,49.46
2023-03-30T15:30:35.143Z,49.48
2023-03-30T15:33:03.365Z,49.55
2023-03-30T15:35:33.300Z,49.80
2023-03-30T15:38:02.945Z,50.12
2023-03-30T15:40:37.516Z,50.30
2023-03-30T15:43:18.219Z,50.48
2023-03-30T15:45:50.559Z,50.70
2023-03-30T15:48:21.714Z,50.77
2023-03-30T15:50:55.931Z,50.89
2023-03-30T15:53:36.073Z,50.99
2023-03-30T15:56:07.597Z,51.23
2023-03-30T15:58:35.639Z,51.31
2023-03-30T16:01:04.384Z,51.47
2023-03-30T16:03:39.637Z,51.45
2023-03-30T16:06:12.939Z,51.56
2023-03-30T16:08:43.711Z,51.58
2023-03-30T16:11:14.414Z,51.74
2023-03-30T16:13:44.903Z,51.81
2023-03-30T16:16:13.698Z,51.96
2023-03-30T16:18:42.940Z,51.98
2023-03-30T16:21:27.002Z,52.07
2023-03-30T16:23:54.974Z,52.26
2023-03-30T16:26:23.036Z,52.34
2023-03-30T16:28:54.875Z,52.37
2023-03-30T16:31:24.734Z,52.50
2023-03-30T16:33:53.118Z,52.44
2023-03-30T16:36:27.201Z,52.62
2023-03-30T16:38:56.635Z,52.59
2023-03-30T16:41:25.527Z,52.50
2023-03-30T16:43:53.676Z,52.69
2023-03-30T16:46:22.321Z,52.81
2023-03-30T16:48:57.233Z,52.81
2023-03-30T16:51:25.539Z,52.78
2023-03-30T16:53:53.546Z,52.73
2023-03-30T16:56:22.022Z,52.90
2023-03-30T16:58:50.090Z,52.80
2023-03-30T17:01:18.232Z,52.95
2023-03-30T17:04:02.481Z,52.96
2023-03-30T17:06:31.639Z,53.08
2023-03-30T17:09:02.994Z,53.05
2023-03-30T17:11:31.231Z,53.02
2023-03-30T17:13:59.217Z,53.17
2023-03-30T17:16:30.416Z,53.29
2023-03-30T17:18:59.498Z,53.34
2023-03-30T17:21:27.552Z,53.49
2023-03-30T17:23:58.407Z,53.50
2023-03-30T17:26:26.960Z,53.55
2023-03-30T17:28:58.294Z,53.68
2023-03-30T17:31:26.585Z,53.73
2023-03-30T17:33:59.103Z,53.95
2023-03-30T17:36:27.912Z,53.83
2023-03-30T17:38:56.199Z,54.03
2023-03-30T17:41:24.434Z,54.07
2023-03-30T17:43:52.568Z,54.16
2023-03-30T17:46:20.670Z,54.32
2023-03-30T17:48:50.507Z,54.37
2023-03-30T17:51:18.503Z,54.42
2023-03-30T17:53:46.456Z,54.55
2023-03-30T17:56:14.525Z,54.56
2023-03-30T17:58:46.108Z,54.53
2023-03-30T18:01:20.253Z,54.68
2023-03-30T18:03:48.786Z,54.67
2023-03-30T18:06:17.702Z,54.76
2023-03-30T18:08:46.033Z,54.82
2023-03-30T18:11:14.564Z,54.86
2023-03-30T18:13:42.912Z,54.94
2023-03-30T18:16:12.587Z,55.15
2023-03-30T18:18:40.820Z,55.29
2023-03-30T18:21:10.769Z,55.41
2023-03-30T18:23:38.882Z,55.59
2023-03-30T18:26:11.829Z,55.74
2023-03-30T18:28:42.845Z,55.90
2023-03-30T18:31:11.350Z,56.07
2023-03-30T18:33:40.923Z,56.32
2023-03-30T18:36:11.950Z,56.60
2023-03-30T18:38:40.345Z,56.62
2023-03-30T18:41:12.838Z,56.85
2023-03-30T18:43:41.285Z,57.15
2023-03-30T18:46:12.784Z,57.25
2023-03-30T18:48:42.548Z,57.33
2023-03-30T18:51:11.557Z,57.55
2023-03-30T18:53:40.966Z,57.61
2023-03-30T18:56:12.927Z,57.68
2023-03-30T18:58:42.252Z,57.71
2023-03-30T19:01:13.192Z,57.84
2023-03-30T19:03:42.146Z,57.98
2023-03-30T19:06:15.809Z,58.00
2023-03-30T19:08:44.125Z,58.30
2023-03-30T19:11:17.431Z,58.44
2023-03-30T19:13:46.894Z,58.60
2023-03-30T19:16:21.545Z,58.75
2023-03-30T19:18:49.799Z,58.95
2023-03-30T19:21:18.243Z,59.21
2023-03-30T19:23:49.842Z,59.41
2023-03-30T19:26:20.331Z,59.53
2023-03-30T19:28:48.428Z,59.60
2023-03-30T19:31:25.499Z,59.94
2023-03-30T19:33:54.978Z,60.18
2023-03-30T19:36:25.207Z,60.38
2023-03-30T19:38:53.857Z,60.58
2023-03-30T19:41:22.712Z,60.77
2023-03-30T19:43:55.319Z,60.91
2023-03-30T19:46:23.841Z,60.99
2023-03-30T19:48:52.965Z,61.15
2023-03-30T19:51:21.244Z,61.34
2023-03-30T19:53:49.321Z,61.46
2023-03-30T19:56:17.743Z,61.54
2023-03-30T19:58:46.620Z,61.86
2023-03-30T20:01:15.148Z,61.96
2023-03-30T20:03:44.405Z,61.96
2023-03-30T20:06:13.438Z,62.26
2023-03-30T20:08:43.960Z,62.35
2023-03-30T20:11:12.296Z,62.46
2023-03-30T20:13:45.030Z,62.65
2023-03-30T20:16:19.437Z,62.72
2023-03-30T20:18:49.944Z,62.83
2023-03-30T20:21:19.351Z,63.01
2023-03-30T20:23:47.805Z,63.15
2023-03-30T20:26:18.845Z,63.11
2023-03-30T20:28:50.072Z,63.33
2023-03-30T20:31:18.767Z,63.47
2023-03-30T20:33:47.594Z,63.63
2023-03-30T20:36:16.314Z,63.85
2023-03-30T20:38:45.670Z,63.81
2023-03-30T20:41:14.558Z,63.96
2023-03-30T20:43:56.440Z,64.18
2023-03-30T20:46:34.904Z,64.42
2023-03-30T20:49:03.417Z,64.56
2023-03-30T20:51:32.052Z,64.61
2023-03-30T20:54:00.326Z,64.75
2023-03-30T20:56:28.418Z,64.89
2023-03-30T20:58:56.696Z,64.95
2023-03-30T21:01:28.621Z,65.17
2023-03-30T21:03:58.312Z,65.33
2023-03-30T21:06:29.112Z,65.47
2023-03-30T21:09:01.252Z,65.40
2023-03-30T21:11:32.956Z,65.65
2023-03-30T21:14:01.692Z,65.85
2023-03-30T21:16:29.905Z,65.99
2023-03-30T21:18:58.724Z,66.05
2023-03-30T21:21:28.178Z,66.14
2023-03-30T21:23:56.711Z,66.17
2023-03-30T21:26:25.689Z,66.40
2023-03-30T21:28:53.980Z,66.58
2023-03-30T21:31:22.251Z,66.68
2023-03-30T21:33:50.322Z,66.79
2023-03-30T21:36:18.569Z,66.88
2023-03-30T21:38:46.815Z,67.07
2023-03-30T21:41:16.305Z,67.19
2023-03-30T21:43:46.752Z,67.19
2023-03-30T21:46:17.282Z,67.29
2023-03-30T21:48:46.187Z,67.29
2023-03-30T21:51:16.830Z,67.48
2023-03-30T21:53:47.808Z,67.54
2023-03-30T21:56:16.895Z,67.70
2023-03-30T21:58:44.877Z,67.86
2023-03-30T22:01:13.133Z,67.90
2023-03-30T22:03:42.312Z,67.93
2023-03-30T22:06:12.628Z,68.10
2023-03-30T22:08:40.729Z,68.38
2023-03-30T22:11:11.568Z,68.38
2023-03-30T22:13:39.620Z,68.40
2023-03-30T22:16:12.003Z,68.59
2023-03-30T22:18:40.399Z,68.67
2023-03-30T22:21:11.633Z,68.84
2023-03-30T22:23:39.669Z,68.90
2023-03-30T22:26:08.083Z,68.86
2023-03-30T22:28:36.649Z,68.96
2023-03-30T22:31:07.786Z,68.99
2023-03-30T22:33:36.186Z,69.11
2023-03-30T22:36:06.533Z,69.11
2023-03-30T22:38:35.029Z,69.14
2023-03-30T22:41:07.350Z,69.16
2023-03-30T22:43:36.382Z,69.31
2023-03-30T22:46:05.271Z,69.30
2023-03-30T22:48:34.870Z,69.29
2023-03-30T22:51:03.424Z,69.35
2023-03-30T22:53:31.737Z,69.41
2023-03-30T22:56:00.344Z,69.41
2023-03-30T22:58:28.307Z,69.59
2023-03-30T23:01:01.228Z,69.65
2023-03-30T23:03:29.522Z,69.51
2023-03-30T23:06:00.202Z,69.61
2023-03-30T23:08:31.532Z,69.64
2023-03-30T23:11:04.233Z,69.71
2023-03-30T23:13:36.584Z,69.78
2023-03-30T23:16:05.685Z,69.71
2023-03-30T23:18:34.572Z,69.79
2023-03-30T23:21:05.580Z,69.78
2023-03-30T23:23:33.899Z,69.84
2023-03-30T23:26:07.489Z,69.82
2023-03-30T23:28:36.786Z,69.87
2023-03-30T23:31:08.523Z,69.82
2023-03-30T23:33:36.695Z,69.90
2023-03-30T23:36:06.096Z,69.89
2023-03-30T23:38:34.442Z,69.92
2023-03-30T23:41:02.477Z,69.81
2023-03-30T23:43:30.447Z,69.95
2023-03-30T23:45:58.607Z,69.99
2023-03-30T23:48:26.758Z,69.98
2023-03-30T23:50:55.746Z,69.87
2023-03-30T23:53:25.625Z,69.94
2023-03-30T23:55:53.852Z,69.83
2023-03-30T23:58:22.214Z,69.87
